Terminal Aerodrome Forecast
Issued by NWS

Home | Current Version | Previous Version | Text Only | Print | Product List | Glossary On
Versions: 1 2 3 4 5 6 7 8 9 10 11 12 13 14
582
FTUS44 KLZK 080341 AAA
TAFBPK
TAF AMD
KBPK 080341Z 0804/0824 29007KT P6SM BKN080 BKN250
     FM080700 30010G18KT P6SM BKN035 OVC100
     FM081200 30015G25KT P6SM BKN025 OVC050=

USA.gov is the U.S. government's official web portal to all federal, state and local government web resources and services.